Diego Garcia, British Indian Ocean

2:39 PM +06 on April 25, 2017 (GMT +0600)
Diego Garcia Navy | | Change Station

Elev 7 ft 7.30 °S, 72.40 °E | Updated 44 minutes ago

Partly Cloudy
Partly Cloudy
88 °F
Feels Like 106 °F
N
21
Wind Variable Wind from SE

Today
High -- | Low -- °F
--% Chance of Precip.
Yesterday
High -- | Low -- °F
Precip. -- in
Pressure 29.84 in
Visibility 6.2 miles
Clouds Few 2000 ft
Few 8000 ft
Scattered Clouds 25000 ft
Heat Index 106 °F
Dew Point 81 °F
Humidity 79%
Rainfall 0.06 in
Snow Depth Not available.
7:11 AM 7:04 PM
Waning Crescent, 2% visible
METAR FJDG 250755Z 13018KT 9999 FEW020 FEW080 SCT250 31/27 A2985 RMK SLP105 T03110271
Pressure 29.84 in
Visibility 6.2 miles
Clouds Few 2000 ft
Few 8000 ft
Scattered Clouds 25000 ft
Heat Index 106 °F
Dew Point 81 °F
Humidity 79%
Rainfall 0.06 in
Snow Depth Not available.
7:11 AM 7:04 PM
Waning Crescent, 2% visible
METAR FJDG 250755Z 13018KT 9999 FEW020 FEW080 SCT250 31/27 A2985 RMK SLP105 T03110271

Get Severe Weather Alerts

Thanks for signing up!

Be on the lookout for a verification email in your inbox.

You'll start receiving the daily forecast at 8 AM.

×

10-Day Weather Forecast

No radar image for this location.
×

Almanac

Astronomy

Apr. 25, 2017 Rise Set
Actual Time
Civil Twilight
Nautical Twilight
Astronomical Twilight
Moon
Length of Visible Light
Length of Day
Tomorrow will be .
, % of the Moon is Illuminated

Today's Extremes

Country Highs Country Lows

Community

WunderPhotos

WunderBlog® & News

Nearby

Air Quality

  Air Quality AQ Index Pollutant
Not available.

Snow Depth

Station Depth Elevation

Earthquake Activity

City Distance Mag. Time & Date
Minimum magnitude displayed is 2.5.

Coastal Water Temperatures

Place Temperature

Stations

Nearby Weather Stations

Station Location Temp. Windchill Dew Point Humidity Wind Precip. Elev Updated Type